createdAt,value
2023-12-23T00:00:41.938Z,0
2023-12-23T00:01:45.621Z,0
2023-12-23T00:02:47.887Z,0
2023-12-23T00:03:50.351Z,0
2023-12-23T00:04:52.381Z,0
2023-12-23T00:05:54.862Z,0
2023-12-23T00:06:56.805Z,0
2023-12-23T00:07:58.963Z,0
2023-12-23T00:09:00.831Z,0
2023-12-23T00:10:03.631Z,0
2023-12-23T00:11:06.886Z,0
2023-12-23T00:12:09.855Z,0
2023-12-23T00:13:11.455Z,0
2023-12-23T00:14:15.344Z,0
2023-12-23T00:15:17.355Z,0
2023-12-23T00:16:21.364Z,0
2023-12-23T00:17:25.146Z,0
2023-12-23T00:18:28.271Z,0
2023-12-23T00:19:31.920Z,0
2023-12-23T00:20:35.555Z,0
2023-12-23T00:21:37.743Z,0
2023-12-23T00:22:40.216Z,0
2023-12-23T00:23:42.725Z,0
2023-12-23T00:24:44.770Z,0
2023-12-23T00:25:47.890Z,0
2023-12-23T00:26:49.955Z,0
2023-12-23T00:27:54.022Z,0
2023-12-23T00:28:56.816Z,0
2023-12-23T00:29:59.258Z,0
2023-12-23T00:31:01.188Z,0
2023-12-23T00:32:03.442Z,0
2023-12-23T00:33:07.373Z,0
2023-12-23T00:34:09.045Z,0
2023-12-23T00:35:11.769Z,0
2023-12-23T00:36:13.881Z,0
2023-12-23T00:37:16.255Z,0
2023-12-23T00:38:19.823Z,0
2023-12-23T00:39:21.917Z,0
2023-12-23T00:40:24.000Z,0
2023-12-23T00:41:26.443Z,0
2023-12-23T00:42:28.756Z,0
2023-12-23T00:43:33.716Z,0
2023-12-23T00:44:35.945Z,0
2023-12-23T00:45:37.959Z,0
2023-12-23T00:46:40.831Z,0
2023-12-23T00:47:43.197Z,0
2023-12-23T00:48:45.912Z,0
2023-12-23T00:49:48.280Z,0
2023-12-23T00:50:50.094Z,0
2023-12-23T00:51:51.960Z,0
2023-12-23T00:52:54.452Z,0
2023-12-23T00:53:56.533Z,0
2023-12-23T00:54:58.326Z,0
2023-12-23T00:56:00.596Z,0
2023-12-23T00:57:03.113Z,0
2023-12-23T00:58:05.365Z,0
2023-12-23T00:59:07.509Z,0
2023-12-23T01:00:09.630Z,0
2023-12-23T01:01:12.433Z,0
2023-12-23T01:02:15.681Z,0
2023-12-23T01:03:17.974Z,0
2023-12-23T01:04:19.536Z,0
2023-12-23T01:05:22.164Z,0
2023-12-23T01:06:25.382Z,0
2023-12-23T01:07:27.512Z,0
2023-12-23T01:08:29.898Z,0
2023-12-23T01:09:32.391Z,0
2023-12-23T01:10:37.897Z,0
2023-12-23T01:11:39.770Z,0
2023-12-23T01:12:44.330Z,0
2023-12-23T01:13:47.441Z,0
2023-12-23T01:14:49.414Z,0
2023-12-23T01:15:54.379Z,0
2023-12-23T01:16:56.748Z,0
2023-12-23T01:18:00.066Z,0
2023-12-23T01:19:02.439Z,0
2023-12-23T01:20:05.177Z,0
2023-12-23T01:21:07.123Z,0
2023-12-23T01:22:09.175Z,0
2023-12-23T01:23:11.647Z,0
2023-12-23T01:24:13.556Z,0
2023-12-23T01:25:15.754Z,0
2023-12-23T01:26:18.783Z,0
2023-12-23T01:27:20.274Z,0
2023-12-23T01:28:22.776Z,0
2023-12-23T01:29:24.829Z,0
2023-12-23T01:30:27.889Z,0
2023-12-23T01:31:29.403Z,0
2023-12-23T01:32:32.233Z,0
2023-12-23T01:33:35.429Z,0
2023-12-23T01:34:38.240Z,0
2023-12-23T01:35:39.696Z,0
2023-12-23T01:36:41.781Z,0
2023-12-23T01:37:43.964Z,0
2023-12-23T01:38:45.861Z,0
2023-12-23T01:41:24.490Z,0
2023-12-23T01:42:26.231Z,0
2023-12-23T01:43:28.562Z,0
2023-12-23T01:44:30.956Z,0
2023-12-23T01:45:37.495Z,0
2023-12-23T01:46:41.411Z,0
2023-12-23T01:47:44.386Z,0
2023-12-23T01:48:47.379Z,0
2023-12-23T01:49:50.296Z,0
2023-12-23T01:50:53.766Z,0
2023-12-23T01:51:55.496Z,0
2023-12-23T01:52:57.942Z,0
2023-12-23T01:53:59.648Z,0
2023-12-23T01:55:01.727Z,0
2023-12-23T01:56:04.828Z,0
2023-12-23T01:57:06.890Z,0
2023-12-23T01:58:10.698Z,0
2023-12-23T01:59:13.579Z,0
2023-12-23T02:00:15.245Z,0
2023-12-23T02:01:18.297Z,0
2023-12-23T02:02:20.883Z,0
2023-12-23T02:03:23.059Z,0
2023-12-23T02:04:24.792Z,0
2023-12-23T02:05:27.750Z,0
2023-12-23T02:06:29.703Z,0
2023-12-23T02:07:31.745Z,0
2023-12-23T02:08:33.956Z,0
2023-12-23T02:09:35.972Z,0
2023-12-23T02:10:38.056Z,0
2023-12-23T02:11:39.985Z,0
2023-12-23T02:12:41.862Z,0
2023-12-23T02:13:43.843Z,0
2023-12-23T02:14:46.332Z,0
2023-12-23T02:15:48.940Z,0
2023-12-23T02:16:51.095Z,0
2023-12-23T02:17:53.810Z,0
2023-12-23T02:18:56.469Z,0
2023-12-23T02:19:59.044Z,0
2023-12-23T02:21:01.149Z,0
2023-12-23T02:22:02.946Z,0
2023-12-23T02:23:05.292Z,0
2023-12-23T02:24:07.579Z,0
2023-12-23T02:25:09.558Z,0
2023-12-23T02:26:16.620Z,0
2023-12-23T02:27:17.764Z,0
2023-12-23T02:28:19.960Z,0
2023-12-23T02:29:22.317Z,0
2023-12-23T02:30:25.118Z,0
2023-12-23T02:31:27.120Z,0
2023-12-23T02:32:30.287Z,0
2023-12-23T02:33:32.891Z,0
2023-12-23T02:34:34.967Z,0
2023-12-23T02:35:36.904Z,0
2023-12-23T02:36:38.795Z,0
2023-12-23T02:37:41.064Z,0
2023-12-23T02:38:42.928Z,0
2023-12-23T02:39:44.873Z,0
2023-12-23T02:40:47.068Z,0
2023-12-23T02:41:49.461Z,0
2023-12-23T02:42:54.242Z,0
2023-12-23T02:43:57.083Z,0
2023-12-23T02:44:59.565Z,0
2023-12-23T02:46:02.509Z,0
2023-12-23T02:47:04.870Z,0
2023-12-23T02:48:08.204Z,0
2023-12-23T02:49:11.117Z,0
2023-12-23T02:50:14.489Z,0
2023-12-23T02:51:16.199Z,0
2023-12-23T02:52:18.774Z,0
2023-12-23T02:53:21.276Z,0
2023-12-23T02:54:24.574Z,0
2023-12-23T02:55:31.421Z,0
2023-12-23T02:56:33.765Z,0
2023-12-23T02:57:35.795Z,0
2023-12-23T02:58:38.607Z,0
2023-12-23T02:59:41.710Z,0
2023-12-23T03:00:43.986Z,0
2023-12-23T03:01:46.554Z,0
2023-12-23T03:02:51.357Z,0
2023-12-23T03:03:53.084Z,0
2023-12-23T03:04:55.339Z,0
2023-12-23T03:05:58.362Z,0
2023-12-23T03:07:01.267Z,0
2023-12-23T03:08:05.502Z,0
2023-12-23T03:09:07.683Z,0
2023-12-23T03:10:09.716Z,0
2023-12-23T03:11:12.024Z,0
2023-12-23T03:12:13.669Z,0
2023-12-23T03:13:16.228Z,0
2023-12-23T03:14:18.869Z,0
2023-12-23T03:15:20.855Z,0
2023-12-23T03:16:22.810Z,0
2023-12-23T03:17:25.566Z,0
2023-12-23T03:18:28.332Z,0
2023-12-23T03:19:30.116Z,0
2023-12-23T03:20:32.712Z,0
2023-12-23T03:21:34.599Z,0
2023-12-23T03:22:37.081Z,0
2023-12-23T03:23:38.916Z,0
2023-12-23T03:24:41.779Z,0
2023-12-23T03:25:44.215Z,0
2023-12-23T03:26:46.363Z,0
2023-12-23T03:27:49.383Z,0
2023-12-23T03:28:51.784Z,0
2023-12-23T03:29:53.539Z,0
2023-12-23T03:30:55.879Z,0
2023-12-23T03:31:58.184Z,0
2023-12-23T03:33:01.600Z,0
2023-12-23T03:34:05.160Z,0
2023-12-23T03:35:09.168Z,0
2023-12-23T03:36:12.367Z,0
2023-12-23T03:37:14.613Z,0
2023-12-23T03:38:17.010Z,0
2023-12-23T03:39:18.921Z,0
2023-12-23T03:40:21.089Z,0
2023-12-23T03:41:23.706Z,0
2023-12-23T03:42:32.093Z,0
2023-12-23T03:43:33.870Z,0
2023-12-23T03:44:35.760Z,0
2023-12-23T03:45:37.562Z,0
2023-12-23T03:46:40.133Z,0
2023-12-23T03:47:43.221Z,0
2023-12-23T03:48:46.078Z,0
2023-12-23T03:49:48.487Z,0
2023-12-23T03:50:50.177Z,0
2023-12-23T03:51:52.185Z,0
2023-12-23T03:52:55.472Z,0
2023-12-23T03:53:57.616Z,0
2023-12-23T03:54:59.575Z,0
2023-12-23T03:56:02.294Z,0
2023-12-23T03:57:05.356Z,0
2023-12-23T03:58:08.515Z,0
2023-12-23T03:59:10.890Z,0
2023-12-23T04:00:12.877Z,0
2023-12-23T04:01:14.849Z,0
2023-12-23T04:02:17.703Z,0
2023-12-23T04:03:20.089Z,0
2023-12-23T04:04:22.278Z,0
2023-12-23T04:05:25.482Z,0
2023-12-23T04:06:28.355Z,0
2023-12-23T04:07:30.479Z,0
2023-12-23T04:08:32.077Z,0
2023-12-23T04:09:33.932Z,0
2023-12-23T04:10:35.699Z,0
2023-12-23T04:11:37.755Z,0
2023-12-23T04:12:39.015Z,0
2023-12-23T04:13:42.644Z,0
2023-12-23T04:14:44.859Z,0
2023-12-23T04:15:47.055Z,0
2023-12-23T04:16:49.181Z,0
2023-12-23T04:17:51.795Z,0
2023-12-23T04:18:55.155Z,0
2023-12-23T04:19:57.821Z,0
2023-12-23T04:21:00.107Z,0
2023-12-23T04:22:02.030Z,0
2023-12-23T04:23:04.499Z,0
2023-12-23T04:24:08.349Z,0
2023-12-23T04:25:10.540Z,0
2023-12-23T04:26:13.667Z,0
2023-12-23T04:27:15.065Z,0
2023-12-23T04:28:17.020Z,0
2023-12-23T04:29:19.965Z,0
2023-12-23T04:30:23.074Z,0
2023-12-23T04:31:25.948Z,0
2023-12-23T04:32:29.496Z,0
2023-12-23T04:33:32.014Z,0
2023-12-23T04:34:34.659Z,0
2023-12-23T04:35:37.562Z,0
2023-12-23T04:36:39.036Z,0
2023-12-23T04:37:41.864Z,0
2023-12-23T04:38:43.961Z,0
2023-12-23T04:39:46.152Z,0
2023-12-23T04:40:48.547Z,0
2023-12-23T04:41:51.173Z,0
2023-12-23T04:42:54.370Z,0
2023-12-23T04:43:58.673Z,0
2023-12-23T04:45:01.397Z,0
2023-12-23T04:46:04.343Z,0
2023-12-23T04:47:06.634Z,0
2023-12-23T04:48:10.329Z,0
2023-12-23T04:49:11.620Z,0
2023-12-23T04:50:13.917Z,0
2023-12-23T04:51:16.630Z,0
2023-12-23T04:52:19.012Z,0
2023-12-23T04:53:21.887Z,0
2023-12-23T04:54:24.104Z,0
2023-12-23T04:55:28.472Z,0
2023-12-23T04:56:30.613Z,0
2023-12-23T04:57:32.661Z,0
2023-12-23T04:58:34.515Z,0
2023-12-23T04:59:36.338Z,0
2023-12-23T05:00:38.107Z,0
2023-12-23T05:01:40.937Z,0
2023-12-23T05:02:43.238Z,0
2023-12-23T05:03:45.084Z,0
2023-12-23T05:04:48.890Z,0
2023-12-23T05:05:52.757Z,0
2023-12-23T05:06:56.134Z,0
2023-12-23T05:07:59.464Z,0
2023-12-23T05:09:01.667Z,0
2023-12-23T05:10:03.355Z,0
2023-12-23T05:11:05.703Z,0
2023-12-23T05:12:08.549Z,0
2023-12-23T05:13:10.303Z,0
2023-12-23T05:14:12.621Z,0
2023-12-23T05:15:14.573Z,0
2023-12-23T05:16:17.028Z,0
2023-12-23T05:17:22.229Z,0
2023-12-23T05:18:24.856Z,0
2023-12-23T05:19:27.678Z,0
2023-12-23T05:20:32.662Z,0
2023-12-23T05:21:34.648Z,0
2023-12-23T05:22:36.530Z,0
2023-12-23T05:23:38.545Z,0
2023-12-23T05:24:40.193Z,0
2023-12-23T05:25:42.941Z,0
2023-12-23T05:26:44.755Z,0
2023-12-23T05:27:47.190Z,0
2023-12-23T05:28:49.443Z,0
2023-12-23T05:29:52.468Z,0
2023-12-23T05:30:55.253Z,0
2023-12-23T05:31:57.329Z,0
2023-12-23T05:33:00.485Z,0
2023-12-23T05:34:03.240Z,0
2023-12-23T05:35:06.666Z,0
2023-12-23T05:36:08.396Z,0
2023-12-23T05:37:10.506Z,0
2023-12-23T05:38:15.088Z,0
2023-12-23T05:39:17.924Z,0
2023-12-23T05:40:20.564Z,0
2023-12-23T05:41:23.395Z,0
2023-12-23T05:42:25.148Z,0
2023-12-23T05:43:27.064Z,0
2023-12-23T05:44:29.934Z,0
2023-12-23T05:45:32.301Z,0
2023-12-23T05:46:34.326Z,0
2023-12-23T05:47:37.266Z,0
2023-12-23T05:48:40.589Z,0
2023-12-23T05:49:44.792Z,0
2023-12-23T05:50:46.944Z,0
2023-12-23T05:51:48.457Z,0
2023-12-23T05:52:52.960Z,0
2023-12-23T05:53:55.079Z,0
2023-12-23T05:54:57.091Z,0
2023-12-23T05:56:00.192Z,0
2023-12-23T05:57:01.476Z,0
2023-12-23T05:58:04.594Z,0
2023-12-23T05:59:07.710Z,0
2023-12-23T06:00:14.540Z,0
2023-12-23T06:01:16.964Z,0
2023-12-23T06:02:19.807Z,0
2023-12-23T06:03:24.017Z,0
2023-12-23T06:04:26.420Z,0
2023-12-23T06:05:29.463Z,0
2023-12-23T06:06:32.425Z,0
2023-12-23T06:07:33.861Z,0
2023-12-23T06:08:35.626Z,0
2023-12-23T06:09:37.745Z,0
2023-12-23T06:11:06.075Z,0
2023-12-23T06:12:07.917Z,0
2023-12-23T06:13:09.526Z,0
2023-12-23T06:14:12.065Z,0
2023-12-23T06:15:14.251Z,0
2023-12-23T06:16:16.112Z,0
2023-12-23T06:17:19.609Z,0
2023-12-23T06:18:23.526Z,0
2023-12-23T06:19:26.401Z,0
2023-12-23T06:20:29.857Z,0
2023-12-23T06:21:32.172Z,0
2023-12-23T06:22:35.339Z,0
2023-12-23T06:23:37.201Z,0
2023-12-23T06:24:39.173Z,0
2023-12-23T06:25:41.485Z,0
2023-12-23T06:26:47.549Z,0
2023-12-23T06:27:50.197Z,0
2023-12-23T06:28:52.246Z,0
2023-12-23T06:29:54.379Z,0
2023-12-23T06:30:58.547Z,0
2023-12-23T06:32:03.269Z,0
2023-12-23T06:33:06.746Z,0
2023-12-23T06:34:11.111Z,0
2023-12-23T06:35:13.380Z,0
2023-12-23T06:36:15.238Z,0
2023-12-23T06:37:17.651Z,0
2023-12-23T06:38:20.534Z,0
2023-12-23T06:39:22.218Z,0
2023-12-23T06:40:24.869Z,0
2023-12-23T06:41:27.135Z,0
2023-12-23T06:42:29.749Z,0
2023-12-23T06:43:55.161Z,0.1
2023-12-23T06:44:57.389Z,0.1
2023-12-23T06:45:59.428Z,0.1
2023-12-23T06:47:01.612Z,0.1
2023-12-23T06:48:04.632Z,0.2
2023-12-23T06:49:07.582Z,0.2
2023-12-23T06:50:10.859Z,0.2
2023-12-23T06:51:12.905Z,0.2
2023-12-23T06:52:14.557Z,0.3
2023-12-23T06:53:16.503Z,0.3
2023-12-23T06:54:18.114Z,0.4
2023-12-23T06:55:19.926Z,0.4
2023-12-23T06:56:22.120Z,0.5
2023-12-23T06:57:24.305Z,0.5
2023-12-23T06:58:26.096Z,0.6
2023-12-23T06:59:28.064Z,0.8
2023-12-23T07:00:29.946Z,0.9
2023-12-23T07:01:31.608Z,1
2023-12-23T07:02:33.100Z,1.1
2023-12-23T07:03:35.283Z,1.3
2023-12-23T07:04:37.040Z,1.5
2023-12-23T07:05:39.962Z,1.8
2023-12-23T07:06:41.192Z,2
2023-12-23T07:07:43.470Z,2.5
2023-12-23T07:08:45.785Z,3
2023-12-23T07:10:08.779Z,4.2
2023-12-23T07:11:11.073Z,4.2
2023-12-23T07:12:15.129Z,5.2
2023-12-23T07:13:16.916Z,5.5
2023-12-23T07:14:19.596Z,6.6
2023-12-23T07:15:21.306Z,7.8
2023-12-23T07:16:23.255Z,8.6
2023-12-23T07:17:43.945Z,9.4
2023-12-23T07:18:47.906Z,10.2
2023-12-23T07:19:50.646Z,10.2
2023-12-23T07:20:52.778Z,11.5
2023-12-23T07:21:55.092Z,13.4
2023-12-23T07:22:57.099Z,14.4
2023-12-23T07:23:58.993Z,14.3
2023-12-23T07:25:00.589Z,16.8
2023-12-23T07:26:02.776Z,20.2
2023-12-23T07:27:04.712Z,25.6
2023-12-23T07:28:06.824Z,25
2023-12-23T07:29:09.314Z,26.1
2023-12-23T07:30:11.014Z,27.7
2023-12-23T07:31:12.596Z,30.8
2023-12-23T07:32:14.777Z,31.7
2023-12-23T07:33:17.725Z,37.6
2023-12-23T07:34:19.316Z,38.2
2023-12-23T07:35:24.672Z,40
2023-12-23T07:36:26.605Z,42.8
2023-12-23T07:37:29.979Z,46.1
2023-12-23T07:38:32.731Z,45.7
2023-12-23T07:39:34.378Z,57.2
2023-12-23T07:40:37.453Z,50.8
2023-12-23T07:41:38.988Z,54
2023-12-23T07:42:40.505Z,56.2
2023-12-23T07:43:42.597Z,65.2
2023-12-23T07:44:44.938Z,69.8
2023-12-23T07:45:46.788Z,73.4
2023-12-23T07:46:48.551Z,67.7
2023-12-23T07:47:50.660Z,68.4
2023-12-23T07:48:52.733Z,70.2
2023-12-23T07:49:54.946Z,64.4
2023-12-23T07:50:57.286Z,71.3
2023-12-23T07:51:59.441Z,77
2023-12-23T07:53:01.913Z,79.2
2023-12-23T07:54:05.602Z,73.4
2023-12-23T07:55:06.781Z,78.5
2023-12-23T07:56:08.928Z,89.6
2023-12-23T07:57:10.725Z,98.6
2023-12-23T07:58:12.670Z,92.9
2023-12-23T07:59:15.077Z,83.5
2023-12-23T08:00:17.203Z,97.9
2023-12-23T08:01:20.247Z,100.1
2023-12-23T08:02:23.662Z,107.3
2023-12-23T08:03:26.171Z,128.2
2023-12-23T08:04:27.851Z,120.2
2023-12-23T08:05:30.587Z,139
2023-12-23T08:06:33.730Z,149
2023-12-23T08:07:35.300Z,134.6
2023-12-23T08:08:36.975Z,144
2023-12-23T08:09:39.384Z,168.5
2023-12-23T08:10:41.839Z,180.7
2023-12-23T08:11:43.470Z,185.8
2023-12-23T08:12:46.041Z,181.4
2023-12-23T08:13:50.494Z,195.8
2023-12-23T08:14:52.832Z,191.5
2023-12-23T08:15:56.822Z,175
2023-12-23T08:17:01.997Z,185.8
2023-12-23T08:18:06.063Z,184.3
2023-12-23T08:19:09.334Z,180
2023-12-23T08:20:13.240Z,185.8
2023-12-23T08:21:14.405Z,207.4
2023-12-23T08:22:16.512Z,207.4
2023-12-23T08:23:18.819Z,216
2023-12-23T08:24:20.895Z,214.6
2023-12-23T08:25:23.134Z,227.5
2023-12-23T08:26:25.861Z,234.7
2023-12-23T08:27:28.573Z,227.5
2023-12-23T08:28:32.960Z,224.6
2023-12-23T08:29:36.252Z,237.6
2023-12-23T08:30:38.937Z,231.8
2023-12-23T08:31:40.496Z,231.8
2023-12-23T08:32:43.317Z,226.1
2023-12-23T08:33:46.392Z,243.4
2023-12-23T08:34:49.234Z,246.2
2023-12-23T08:35:51.618Z,233.3
2023-12-23T08:36:53.725Z,244.8
2023-12-23T08:37:56.932Z,262.1
2023-12-23T08:38:59.755Z,265
2023-12-23T08:40:01.742Z,285.1
2023-12-23T08:41:03.986Z,289.4
2023-12-23T08:42:06.017Z,309.6
2023-12-23T08:43:07.829Z,316.8
2023-12-23T08:44:10.200Z,337
2023-12-23T08:45:12.311Z,345.6
2023-12-23T08:46:14.555Z,334.1
2023-12-23T08:47:17.632Z,354.2
2023-12-23T08:48:20.568Z,325.4
2023-12-23T08:49:23.128Z,347
2023-12-23T08:50:26.481Z,357.1
2023-12-23T08:51:27.650Z,319.7
2023-12-23T08:52:29.772Z,352.8
2023-12-23T08:53:31.912Z,365.8
2023-12-23T08:54:34.606Z,368.6
2023-12-23T08:55:37.080Z,391.7
2023-12-23T08:56:38.823Z,403.2
2023-12-23T08:57:41.178Z,394.6
2023-12-23T08:58:43.219Z,362.9
2023-12-23T08:59:45.308Z,368.6
2023-12-23T09:00:47.932Z,368.6
2023-12-23T09:01:49.997Z,364.3
2023-12-23T09:02:54.450Z,365.8
2023-12-23T09:03:58.087Z,374.4
2023-12-23T09:05:02.215Z,385.9
2023-12-23T09:06:06.375Z,377.3
2023-12-23T09:07:10.303Z,400.3
2023-12-23T09:08:13.612Z,406.1
2023-12-23T09:09:16.749Z,406.1
2023-12-23T09:10:18.199Z,406.1
2023-12-23T09:11:23.851Z,391.7
2023-12-23T09:12:25.206Z,420.5
2023-12-23T09:13:26.807Z,400.3
2023-12-23T09:14:29.333Z,417.6
2023-12-23T09:15:30.851Z,409
2023-12-23T09:16:33.346Z,403.2
2023-12-23T09:17:37.404Z,420.5
2023-12-23T09:18:40.946Z,406.1
2023-12-23T09:19:43.634Z,391.7
2023-12-23T09:20:46.040Z,380.2
2023-12-23T09:21:47.866Z,383
2023-12-23T09:22:51.619Z,383
2023-12-23T09:23:53.683Z,371.5
2023-12-23T09:24:55.730Z,388.8
2023-12-23T09:25:58.755Z,391.7
2023-12-23T09:27:00.355Z,365.8
2023-12-23T09:28:03.370Z,394.6
2023-12-23T09:29:05.846Z,385.9
2023-12-23T09:30:08.564Z,417.6
2023-12-23T09:31:12.208Z,446.4
2023-12-23T09:32:15.084Z,478.1
2023-12-23T09:33:17.983Z,463.7
2023-12-23T09:34:20.224Z,452.2
2023-12-23T09:35:22.692Z,434.9
2023-12-23T09:36:24.362Z,466.6
2023-12-23T09:37:26.603Z,478.1
2023-12-23T09:38:29.703Z,463.7
2023-12-23T09:39:32.404Z,426.2
2023-12-23T09:40:34.903Z,406.1
2023-12-23T09:41:36.345Z,443.5
2023-12-23T09:42:38.402Z,414.7
2023-12-23T09:43:40.027Z,449.3
2023-12-23T09:44:42.600Z,472.3
2023-12-23T09:45:46.104Z,483.8
2023-12-23T09:46:49.182Z,466.6
2023-12-23T09:47:55.037Z,478.1
2023-12-23T09:48:58.142Z,469.4
2023-12-23T09:50:03.049Z,509.8
2023-12-23T09:51:04.876Z,483.8
2023-12-23T09:52:06.539Z,504
2023-12-23T09:53:09.390Z,498.2
2023-12-23T09:54:11.929Z,524.2
2023-12-23T09:55:14.070Z,527
2023-12-23T09:56:16.761Z,521.3
2023-12-23T09:57:18.820Z,527
2023-12-23T09:58:21.310Z,512.6
2023-12-23T09:59:24.291Z,524.2
2023-12-23T10:00:27.254Z,501.1
2023-12-23T10:01:29.318Z,512.6
2023-12-23T10:02:31.675Z,478.1
2023-12-23T10:03:33.865Z,472.3
2023-12-23T10:04:36.134Z,478.1
2023-12-23T10:05:39.343Z,452.2
2023-12-23T10:06:43.287Z,457.9
2023-12-23T10:07:46.473Z,434.9
2023-12-23T10:08:48.524Z,452.2
2023-12-23T10:09:51.538Z,457.9
2023-12-23T10:10:54.012Z,460.8
2023-12-23T10:11:55.836Z,449.3
2023-12-23T10:12:57.354Z,469.4
2023-12-23T10:13:59.695Z,452.2
2023-12-23T10:15:01.878Z,460.8
2023-12-23T10:16:03.797Z,455
2023-12-23T10:17:09.184Z,440.6
2023-12-23T10:18:12.021Z,440.6
2023-12-23T10:19:14.792Z,432
2023-12-23T10:20:17.419Z,423.4
2023-12-23T10:21:20.238Z,417.6
2023-12-23T10:22:23.021Z,411.8
2023-12-23T10:23:28.067Z,420.5
2023-12-23T10:24:30.881Z,411.8
2023-12-23T10:25:32.293Z,420.5
2023-12-23T10:26:34.278Z,426.2
2023-12-23T10:27:36.542Z,411.8
2023-12-23T10:28:39.151Z,443.5
2023-12-23T10:29:41.376Z,460.8
2023-12-23T10:30:44.464Z,440.6
2023-12-23T10:31:47.409Z,443.5
2023-12-23T10:32:51.600Z,440.6
2023-12-23T10:33:53.702Z,437.8
2023-12-23T10:34:55.742Z,400.3
2023-12-23T10:35:57.424Z,385.9
2023-12-23T10:36:59.377Z,420.5
2023-12-23T10:38:01.595Z,420.5
2023-12-23T10:39:03.076Z,443.5
2023-12-23T10:40:04.598Z,455
2023-12-23T10:41:06.527Z,449.3
2023-12-23T10:42:08.043Z,414.7
2023-12-23T10:43:09.566Z,432
2023-12-23T10:44:11.882Z,460.8
2023-12-23T10:45:13.383Z,475.2
2023-12-23T10:46:14.892Z,486.7
2023-12-23T10:47:17.051Z,515.5
2023-12-23T10:48:19.877Z,506.9
2023-12-23T10:49:22.186Z,532.8
2023-12-23T10:50:24.785Z,576
2023-12-23T10:51:27.385Z,590.4
2023-12-23T10:52:29.021Z,578.9
2023-12-23T10:53:31.550Z,587.5
2023-12-23T10:54:33.118Z,610.6
2023-12-23T10:55:34.593Z,599
2023-12-23T10:56:36.979Z,607.7
2023-12-23T10:57:38.621Z,610.6
2023-12-23T10:58:40.091Z,648
2023-12-23T10:59:41.627Z,642.2
2023-12-23T11:00:43.766Z,656.6
2023-12-23T11:01:45.748Z,625
2023-12-23T11:02:47.405Z,673.9
2023-12-23T11:03:49.797Z,737.3
2023-12-23T11:04:52.015Z,731.5
2023-12-23T11:05:54.335Z,714.2
2023-12-23T11:07:01.705Z,708.5
2023-12-23T11:08:18.941Z,711.4
2023-12-23T11:09:20.619Z,789.1
2023-12-23T11:10:22.198Z,777.6
2023-12-23T11:11:24.392Z,771.8
2023-12-23T11:12:26.054Z,760.3
2023-12-23T11:13:27.841Z,771.8
2023-12-23T11:14:30.154Z,743
2023-12-23T11:15:31.776Z,771.8
2023-12-23T11:16:33.360Z,783.4
2023-12-23T11:17:35.485Z,766.1
2023-12-23T11:18:38.391Z,737.3
2023-12-23T11:19:39.926Z,754.6
2023-12-23T11:20:41.542Z,743
2023-12-23T11:21:43.031Z,754.6
2023-12-23T11:22:45.128Z,835.2
2023-12-23T11:23:47.048Z,823.7
2023-12-23T11:24:49.608Z,892.8
2023-12-23T11:25:51.880Z,898.6
2023-12-23T11:26:53.444Z,1002.2
2023-12-23T11:27:54.978Z,1180.8
2023-12-23T11:28:57.296Z,1175
2023-12-23T11:30:03.539Z,1180.8
2023-12-23T11:31:06.647Z,1157.8
2023-12-23T11:32:08.616Z,1111.7
2023-12-23T11:34:17.568Z,1117.4
2023-12-23T11:35:19.691Z,1140.5
2023-12-23T11:36:21.148Z,1071.4
2023-12-23T11:37:22.615Z,1019.5
2023-12-23T11:38:25.195Z,1048.3
2023-12-23T11:39:26.943Z,1059.8
2023-12-23T11:40:28.996Z,996.5
2023-12-23T11:41:36.864Z,967.7
2023-12-23T11:42:38.182Z,944.6
2023-12-23T11:43:39.658Z,892.8
2023-12-23T11:44:41.140Z,823.7
2023-12-23T11:45:42.697Z,734.4
2023-12-23T11:46:44.833Z,743
2023-12-23T11:47:47.145Z,728.6
2023-12-23T11:48:49.184Z,699.8
2023-12-23T11:49:51.330Z,697
2023-12-23T11:50:52.844Z,676.8
2023-12-23T11:51:54.657Z,702.7
2023-12-23T11:52:57.858Z,699.8
2023-12-23T11:54:01.995Z,682.6
2023-12-23T11:55:03.973Z,671
2023-12-23T11:56:06.117Z,656.6
2023-12-23T11:57:07.665Z,610.6
2023-12-23T11:58:09.097Z,625
2023-12-23T11:59:11.227Z,593.3
2023-12-23T12:00:12.922Z,581.8
2023-12-23T12:01:15.093Z,587.5
2023-12-23T12:02:17.231Z,576
2023-12-23T12:03:18.815Z,584.6
2023-12-23T12:04:21.160Z,619.2
2023-12-23T12:05:24.052Z,613.4
2023-12-23T12:06:26.724Z,639.4
2023-12-23T12:07:28.677Z,642.2
2023-12-23T12:08:30.904Z,587.5
2023-12-23T12:09:32.542Z,639.4
2023-12-23T12:10:35.734Z,607.7
2023-12-23T12:11:38.297Z,596.2
2023-12-23T12:12:39.859Z,564.5
2023-12-23T12:13:41.663Z,555.8
2023-12-23T12:14:43.274Z,584.6
2023-12-23T12:15:44.797Z,564.5
2023-12-23T12:16:46.927Z,553
2023-12-23T12:17:50.541Z,578.9
2023-12-23T12:18:53.118Z,599
2023-12-23T12:19:55.402Z,639.4
2023-12-23T12:20:57.093Z,607.7
2023-12-23T12:21:58.218Z,607.7
2023-12-23T12:23:00.038Z,567.4
2023-12-23T12:24:01.749Z,596.2
2023-12-23T12:25:03.503Z,573.1
2023-12-23T12:26:05.908Z,573.1
2023-12-23T12:27:07.528Z,564.5
2023-12-23T12:28:09.104Z,581.8
2023-12-23T12:29:11.251Z,607.7
2023-12-23T12:30:13.858Z,584.6
2023-12-23T12:31:16.254Z,613.4
2023-12-23T12:32:18.675Z,573.1
2023-12-23T12:33:21.692Z,610.6
2023-12-23T12:34:25.566Z,610.6
2023-12-23T12:35:28.239Z,599
2023-12-23T12:36:29.817Z,544.3
2023-12-23T12:37:31.312Z,576
2023-12-23T12:38:33.289Z,558.7
2023-12-23T12:39:36.440Z,587.5
2023-12-23T12:40:38.075Z,619.2
2023-12-23T12:41:39.861Z,596.2
2023-12-23T12:42:41.537Z,521.3
2023-12-23T12:43:43.062Z,538.6
2023-12-23T12:44:45.340Z,498.2
2023-12-23T12:45:47.311Z,515.5
2023-12-23T12:46:49.512Z,527
2023-12-23T12:47:52.165Z,541.4
2023-12-23T12:48:56.195Z,532.8
2023-12-23T12:50:09.118Z,532.8
2023-12-23T12:51:10.790Z,495.4
2023-12-23T12:52:12.285Z,544.3
2023-12-23T12:53:15.562Z,555.8
2023-12-23T12:54:17.451Z,550.1
2023-12-23T12:55:19.205Z,607.7
2023-12-23T12:56:21.981Z,604.8
2023-12-23T12:59:23.287Z,561.6
2023-12-23T13:00:24.713Z,550.1
2023-12-23T13:01:26.551Z,512.6
2023-12-23T13:02:29.656Z,489.6
2023-12-23T13:03:32.114Z,469.4
2023-12-23T13:04:33.746Z,440.6
2023-12-23T13:05:37.223Z,495.4
2023-12-23T13:06:39.482Z,509.8
2023-12-23T13:07:41.220Z,532.8
2023-12-23T13:08:42.762Z,518.4
2023-12-23T13:09:44.608Z,509.8
2023-12-23T13:10:52.659Z,512.6
2023-12-23T13:11:55.426Z,512.6
2023-12-23T13:12:57.396Z,541.4
2023-12-23T13:13:59.489Z,518.4
2023-12-23T13:15:01.570Z,498.2
2023-12-23T13:16:03.276Z,478.1
2023-12-23T13:17:07.475Z,478.1
2023-12-23T13:18:13.104Z,463.7
2023-12-23T13:19:41.755Z,457.9
2023-12-23T13:20:44.614Z,463.7
2023-12-23T13:21:46.189Z,486.7
2023-12-23T13:22:51.709Z,567.4
2023-12-23T13:23:52.976Z,567.4
2023-12-23T13:24:55.268Z,555.8
2023-12-23T13:25:57.327Z,538.6
2023-12-23T13:27:00.196Z,544.3
2023-12-23T13:28:01.946Z,521.3
2023-12-23T13:29:04.161Z,541.4
2023-12-23T13:30:06.996Z,553
2023-12-23T13:31:08.484Z,538.6
2023-12-23T13:32:10.794Z,561.6
2023-12-23T13:33:13.297Z,463.7
2023-12-23T13:34:15.737Z,460.8
2023-12-23T13:35:18.938Z,463.7
2023-12-23T13:36:20.800Z,504
2023-12-23T13:37:22.674Z,457.9
2023-12-23T13:38:25.788Z,463.7
2023-12-23T13:39:27.417Z,472.3
2023-12-23T13:40:29.575Z,509.8
2023-12-23T13:41:32.128Z,521.3
2023-12-23T13:42:34.310Z,521.3
2023-12-23T13:43:35.898Z,555.8
2023-12-23T13:44:39.217Z,527
2023-12-23T13:45:40.992Z,518.4
2023-12-23T13:46:42.812Z,558.7
2023-12-23T13:47:45.798Z,553
2023-12-23T13:48:48.708Z,578.9
2023-12-23T13:49:51.774Z,616.3
2023-12-23T13:50:54.184Z,613.4
2023-12-23T13:51:55.845Z,584.6
2023-12-23T13:52:59.537Z,492.5
2023-12-23T13:54:01.148Z,527
2023-12-23T13:55:02.718Z,501.1
2023-12-23T13:56:05.350Z,498.2
2023-12-23T13:57:07.042Z,463.7
2023-12-23T13:58:08.870Z,475.2
2023-12-23T13:59:10.887Z,466.6
2023-12-23T14:00:12.674Z,492.5
2023-12-23T14:01:15.097Z,443.5
2023-12-23T14:02:17.841Z,423.4
2023-12-23T14:03:20.053Z,403.2
2023-12-23T14:04:21.782Z,429.1
2023-12-23T14:05:24.514Z,457.9
2023-12-23T14:06:26.815Z,440.6
2023-12-23T14:07:28.865Z,437.8
2023-12-23T14:08:30.812Z,455
2023-12-23T14:09:32.735Z,426.2
2023-12-23T14:10:34.359Z,411.8
2023-12-23T14:11:36.638Z,388.8
2023-12-23T14:12:38.393Z,403.2
2023-12-23T14:13:40.045Z,414.7
2023-12-23T14:14:42.028Z,440.6
2023-12-23T14:15:43.651Z,440.6
2023-12-23T14:16:46.248Z,452.2
2023-12-23T14:17:48.790Z,400.3
2023-12-23T14:18:50.916Z,411.8
2023-12-23T14:19:52.838Z,361.4
2023-12-23T14:20:54.692Z,429.1
2023-12-23T14:21:56.394Z,432
2023-12-23T14:22:59.298Z,452.2
2023-12-23T14:24:01.017Z,449.3
2023-12-23T14:25:03.050Z,409
2023-12-23T14:26:05.994Z,403.2
2023-12-23T14:27:08.656Z,380.2
2023-12-23T14:28:10.312Z,339.8
2023-12-23T14:29:12.472Z,328.3
2023-12-23T14:30:14.722Z,341.3